createdAt,value
2023-05-18T00:00:40.289Z,0.00
2023-05-18T00:01:40.253Z,0.00
2023-05-18T00:02:40.327Z,0.00
2023-05-18T00:03:40.502Z,0.00
2023-05-18T00:04:40.319Z,0.00
2023-05-18T00:05:40.225Z,0.00
2023-05-18T00:06:40.202Z,0.00
2023-05-18T00:07:40.264Z,0.00
2023-05-18T00:08:40.238Z,0.00
2023-05-18T00:09:40.190Z,0.00
2023-05-18T00:10:40.168Z,0.00
2023-05-18T00:11:40.155Z,0.00
2023-05-18T00:12:40.158Z,0.00
2023-05-18T00:13:40.196Z,0.00
2023-05-18T00:14:40.132Z,0.00
2023-05-18T00:15:40.125Z,0.00
2023-05-18T00:16:40.738Z,0.00
2023-05-18T00:17:40.172Z,0.00
2023-05-18T00:18:40.119Z,0.00
2023-05-18T00:19:40.070Z,0.00
2023-05-18T00:20:40.093Z,0.00
2023-05-18T00:21:40.060Z,0.00
2023-05-18T00:22:40.061Z,0.00
2023-05-18T00:23:40.048Z,0.00
2023-05-18T00:24:40.028Z,0.00
2023-05-18T00:25:40.043Z,0.00
2023-05-18T00:26:40.020Z,0.00
2023-05-18T00:27:40.008Z,0.00
2023-05-18T00:28:40.013Z,0.00
2023-05-18T00:29:39.987Z,0.00
2023-05-18T00:30:39.972Z,0.00
2023-05-18T00:31:40.031Z,0.00
2023-05-18T00:32:40.021Z,0.00
2023-05-18T00:33:39.952Z,0.00
2023-05-18T00:34:40.016Z,0.00
2023-05-18T00:35:39.929Z,0.00
2023-05-18T00:36:39.930Z,0.00
2023-05-18T00:37:39.903Z,0.00
2023-05-18T00:38:39.917Z,0.00
2023-05-18T00:39:39.890Z,0.00
2023-05-18T00:40:39.882Z,0.00
2023-05-18T00:41:39.909Z,0.00
2023-05-18T00:42:39.865Z,0.00
2023-05-18T00:43:39.871Z,0.00
2023-05-18T00:44:39.857Z,0.00
2023-05-18T00:45:39.905Z,0.00
2023-05-18T00:46:39.825Z,0.00
2023-05-18T00:47:39.852Z,0.00
2023-05-18T00:48:39.803Z,0.00
2023-05-18T00:49:39.891Z,0.00
2023-05-18T00:50:39.777Z,0.00
2023-05-18T00:51:39.766Z,0.00
2023-05-18T00:52:39.764Z,0.00
2023-05-18T00:53:40.646Z,0.00
2023-05-18T00:54:39.760Z,0.00
2023-05-18T00:55:39.738Z,0.00
2023-05-18T00:56:39.743Z,0.00
2023-05-18T00:57:39.714Z,0.00
2023-05-18T00:58:39.720Z,0.00
2023-05-18T00:59:39.712Z,0.00
2023-05-18T01:00:39.710Z,0.00
2023-05-18T01:01:39.745Z,0.00
2023-05-18T01:02:39.762Z,0.00
2023-05-18T01:03:39.704Z,0.00
2023-05-18T01:04:39.744Z,0.00
2023-05-18T01:05:39.644Z,0.00
2023-05-18T01:06:39.650Z,0.00
2023-05-18T01:07:39.660Z,0.00
2023-05-18T01:08:39.602Z,0.00
2023-05-18T01:09:39.591Z,0.00
2023-05-18T01:10:39.639Z,0.00
2023-05-18T01:11:39.618Z,0.00
2023-05-18T01:12:39.582Z,0.00
2023-05-18T01:13:39.554Z,0.00
2023-05-18T01:14:39.559Z,0.00
2023-05-18T01:15:39.547Z,0.00
2023-05-18T01:16:39.569Z,0.00
2023-05-18T01:17:39.560Z,0.00
2023-05-18T01:18:39.529Z,0.00
2023-05-18T01:19:39.598Z,0.00
2023-05-18T01:20:39.493Z,0.00
2023-05-18T01:21:39.547Z,0.00
2023-05-18T01:22:39.457Z,0.00
2023-05-18T01:23:39.469Z,0.00
2023-05-18T01:24:39.471Z,0.00
2023-05-18T01:25:39.482Z,0.00
2023-05-18T01:26:39.448Z,0.00
2023-05-18T01:27:39.412Z,0.00
2023-05-18T01:28:39.420Z,0.00
2023-05-18T01:29:39.401Z,0.00
2023-05-18T01:30:39.429Z,0.00
2023-05-18T01:31:39.451Z,0.00
2023-05-18T01:32:39.389Z,0.00
2023-05-18T01:33:39.377Z,0.00
2023-05-18T01:34:39.414Z,0.00
2023-05-18T01:35:39.352Z,0.00
2023-05-18T01:36:39.336Z,0.00
2023-05-18T01:37:39.328Z,0.00
2023-05-18T01:38:40.601Z,0.00
2023-05-18T01:39:39.311Z,0.00
2023-05-18T01:40:39.305Z,0.00
2023-05-18T01:41:39.290Z,0.00
2023-05-18T01:42:39.281Z,0.00
2023-05-18T01:43:39.274Z,0.00
2023-05-18T01:44:39.257Z,0.00
2023-05-18T01:45:39.255Z,0.00
2023-05-18T01:46:39.314Z,0.00
2023-05-18T01:47:39.284Z,0.00
2023-05-18T01:48:39.216Z,0.00
2023-05-18T01:49:39.228Z,0.00
2023-05-18T01:50:39.193Z,0.00
2023-05-18T01:51:39.205Z,0.00
2023-05-18T01:52:39.194Z,0.00
2023-05-18T01:53:39.169Z,0.00
2023-05-18T01:54:39.160Z,0.00
2023-05-18T01:55:39.135Z,0.00
2023-05-18T01:56:40.133Z,0.00
2023-05-18T01:57:39.155Z,0.00
2023-05-18T01:58:39.149Z,0.00
2023-05-18T01:59:39.115Z,0.00
2023-05-18T02:00:39.105Z,0.00
2023-05-18T02:01:39.162Z,0.00
2023-05-18T02:02:39.308Z,0.00
2023-05-18T02:03:39.273Z,0.00
2023-05-18T02:04:39.054Z,0.00
2023-05-18T02:05:39.055Z,0.00
2023-05-18T02:06:39.057Z,0.00
2023-05-18T02:07:39.038Z,0.00
2023-05-18T02:08:39.058Z,0.00
2023-05-18T02:09:39.040Z,0.00
2023-05-18T02:10:39.040Z,0.00
2023-05-18T02:11:38.993Z,0.00
2023-05-18T02:12:38.994Z,0.00
2023-05-18T02:13:38.973Z,0.00
2023-05-18T02:14:38.958Z,0.00
2023-05-18T02:15:38.981Z,0.00
2023-05-18T02:16:39.056Z,0.00
2023-05-18T02:17:39.094Z,0.00
2023-05-18T02:18:38.966Z,0.00
2023-05-18T02:19:38.968Z,0.00
2023-05-18T02:20:38.898Z,0.00
2023-05-18T02:21:39.904Z,0.00
2023-05-18T02:22:38.898Z,0.00
2023-05-18T02:23:38.883Z,0.00
2023-05-18T02:24:38.880Z,0.00
2023-05-18T02:25:38.861Z,0.00
2023-05-18T02:26:38.852Z,0.00
2023-05-18T02:27:38.845Z,0.00
2023-05-18T02:28:38.844Z,0.00
2023-05-18T02:29:38.809Z,0.00
2023-05-18T02:30:38.804Z,0.00
2023-05-18T02:31:38.895Z,0.00
2023-05-18T02:32:38.982Z,0.00
2023-05-18T02:33:38.817Z,0.00
2023-05-18T02:34:38.771Z,0.00
2023-05-18T02:35:38.754Z,0.00
2023-05-18T02:36:38.806Z,0.00
2023-05-18T02:37:38.734Z,0.00
2023-05-18T02:38:38.727Z,0.00
2023-05-18T02:39:38.749Z,0.00
2023-05-18T02:40:38.712Z,0.00
2023-05-18T02:41:38.699Z,0.00
2023-05-18T02:42:38.700Z,0.00
2023-05-18T02:43:38.703Z,4.00
2023-05-18T02:44:38.683Z,4.00
2023-05-18T02:45:38.714Z,4.00
2023-05-18T02:46:38.699Z,0.00
2023-05-18T02:47:38.770Z,0.00
2023-05-18T02:48:38.631Z,4.00
2023-05-18T02:49:38.641Z,4.00
2023-05-18T02:50:38.630Z,4.00
2023-05-18T02:51:38.616Z,4.00
2023-05-18T02:52:38.589Z,4.00
2023-05-18T02:53:38.583Z,8.00
2023-05-18T02:54:38.578Z,8.00
2023-05-18T02:55:38.583Z,8.00
2023-05-18T02:56:38.560Z,8.00
2023-05-18T02:57:38.555Z,8.00
2023-05-18T02:58:38.561Z,12.00
2023-05-18T02:59:38.542Z,12.00
2023-05-18T03:00:38.528Z,16.00
2023-05-18T03:01:38.514Z,16.00
2023-05-18T03:02:38.644Z,20.00
2023-05-18T03:03:38.565Z,24.00
2023-05-18T03:04:38.481Z,24.00
2023-05-18T03:05:38.470Z,32.00
2023-05-18T03:06:38.518Z,32.00
2023-05-18T03:07:38.461Z,40.00
2023-05-18T03:08:38.435Z,44.00
2023-05-18T03:09:38.425Z,52.00
2023-05-18T03:10:38.418Z,60.00
2023-05-18T03:11:38.438Z,68.00
2023-05-18T03:12:38.399Z,76.00
2023-05-18T03:13:38.436Z,88.00
2023-05-18T03:14:38.371Z,96.00
2023-05-18T03:15:38.369Z,108.00
2023-05-18T03:16:38.397Z,120.00
2023-05-18T03:17:38.394Z,132.00
2023-05-18T03:18:38.366Z,148.00
2023-05-18T03:19:38.355Z,164.00
2023-05-18T03:20:38.332Z,180.00
2023-05-18T03:21:38.328Z,196.00
2023-05-18T03:22:38.307Z,216.00
2023-05-18T03:23:38.290Z,240.00
2023-05-18T03:24:38.289Z,260.00
2023-05-18T03:25:38.290Z,284.00
2023-05-18T03:26:38.277Z,312.00
2023-05-18T03:27:38.264Z,336.00
2023-05-18T03:28:38.267Z,364.00
2023-05-18T03:29:38.244Z,396.00
2023-05-18T03:30:38.220Z,428.00
2023-05-18T03:31:38.247Z,464.00
2023-05-18T03:32:38.331Z,500.00
2023-05-18T03:33:38.237Z,536.00
2023-05-18T03:34:38.232Z,580.00
2023-05-18T03:35:38.204Z,620.00
2023-05-18T03:36:38.186Z,668.00
2023-05-18T03:37:38.154Z,720.00
2023-05-18T03:38:38.135Z,772.00
2023-05-18T03:39:38.156Z,832.00
2023-05-18T03:40:38.193Z,896.00
2023-05-18T03:41:38.135Z,964.00
2023-05-18T03:42:38.117Z,1036.00
2023-05-18T03:43:38.116Z,1116.00
2023-05-18T03:44:38.083Z,1204.00
2023-05-18T03:45:38.134Z,1292.00
2023-05-18T03:46:38.113Z,1392.00
2023-05-18T03:47:38.107Z,1500.00
2023-05-18T03:48:38.055Z,1624.00
2023-05-18T03:49:38.071Z,1784.00
2023-05-18T03:50:38.039Z,1992.00
2023-05-18T03:51:38.037Z,2256.00
2023-05-18T03:52:38.026Z,2488.00
2023-05-18T03:53:38.013Z,2440.00
2023-05-18T03:54:37.998Z,2364.00
2023-05-18T03:55:38.008Z,2424.00
2023-05-18T03:56:37.994Z,2572.00
2023-05-18T03:57:37.972Z,2792.00
2023-05-18T03:58:37.968Z,3120.00
2023-05-18T03:59:37.950Z,3752.00
2023-05-18T04:00:37.985Z,4132.00
2023-05-18T04:01:37.981Z,4252.00
2023-05-18T04:02:38.030Z,4248.00
2023-05-18T04:03:38.005Z,4116.00
2023-05-18T04:04:37.916Z,4076.00
2023-05-18T04:05:37.903Z,4148.00
2023-05-18T04:06:37.894Z,4260.00
2023-05-18T04:07:37.906Z,4612.00
2023-05-18T04:08:37.887Z,4836.00
2023-05-18T04:09:37.849Z,5104.00
2023-05-18T04:10:37.840Z,5404.00
2023-05-18T04:11:37.848Z,5548.00
2023-05-18T04:12:37.836Z,5712.00
2023-05-18T04:13:37.837Z,6240.00
2023-05-18T04:14:37.800Z,8012.00
2023-05-18T04:15:37.814Z,12000.00
2023-05-18T04:16:37.831Z,15296.00
2023-05-18T04:17:37.792Z,15904.00
2023-05-18T04:18:37.808Z,14656.00
2023-05-18T04:19:37.968Z,11912.00
2023-05-18T04:20:37.737Z,9068.00
2023-05-18T04:21:37.748Z,7192.00
2023-05-18T04:22:37.741Z,7036.00
2023-05-18T04:23:37.711Z,7232.00
2023-05-18T04:24:37.712Z,7388.00
2023-05-18T04:25:37.707Z,7516.00
2023-05-18T04:26:37.677Z,7584.00
2023-05-18T04:27:37.703Z,7880.00
2023-05-18T04:28:37.800Z,8516.00
2023-05-18T04:29:37.664Z,9360.00
2023-05-18T04:30:37.679Z,9412.00
2023-05-18T04:31:37.700Z,9584.00
2023-05-18T04:32:37.669Z,10488.00
2023-05-18T04:33:37.627Z,12348.00
2023-05-18T04:34:37.652Z,13888.00
2023-05-18T04:35:37.636Z,17696.00
2023-05-18T04:36:37.592Z,21568.00
2023-05-18T04:37:37.584Z,21120.00
2023-05-18T04:38:37.594Z,19008.00
2023-05-18T04:39:37.560Z,16800.00
2023-05-18T04:40:37.573Z,17248.00
2023-05-18T04:41:37.542Z,18496.00
2023-05-18T04:42:37.535Z,18560.00
2023-05-18T04:43:37.533Z,22176.00
2023-05-18T04:44:37.542Z,25248.00
2023-05-18T04:45:37.537Z,26080.00
2023-05-18T04:46:37.513Z,26560.00
2023-05-18T04:47:37.491Z,28000.00
2023-05-18T04:48:37.493Z,22784.00
2023-05-18T04:50:03.428Z,18368.00
2023-05-18T04:50:37.476Z,17888.00
2023-05-18T04:51:37.475Z,17280.00
2023-05-18T04:52:37.462Z,17312.00
2023-05-18T04:53:37.460Z,17152.00
2023-05-18T04:54:37.431Z,17696.00
2023-05-18T04:55:37.441Z,17344.00
2023-05-18T04:56:37.421Z,17920.00
2023-05-18T04:57:37.412Z,16448.00
2023-05-18T04:58:37.395Z,16096.00
2023-05-18T04:59:37.492Z,17120.00
2023-05-18T05:00:37.375Z,16992.00
2023-05-18T05:01:37.376Z,17856.00
2023-05-18T05:02:37.377Z,19552.00
2023-05-18T05:03:37.478Z,20256.00
2023-05-18T05:04:37.362Z,20512.00
2023-05-18T05:05:37.339Z,21056.00
2023-05-18T05:06:37.331Z,21472.00
2023-05-18T05:07:37.337Z,23488.00
2023-05-18T05:08:37.297Z,24384.00
2023-05-18T05:09:37.282Z,25120.00
2023-05-18T05:10:37.312Z,23616.00
2023-05-18T05:11:37.255Z,22656.00
2023-05-18T05:12:37.300Z,21120.00
2023-05-18T05:13:37.244Z,22624.00
2023-05-18T05:14:37.215Z,27040.00
2023-05-18T05:15:37.259Z,33216.00
2023-05-18T05:16:37.206Z,35520.00
2023-05-18T05:17:37.257Z,34944.00
2023-05-18T05:18:37.241Z,35840.00
2023-05-18T05:19:37.189Z,36736.00
2023-05-18T05:20:37.166Z,40736.00
2023-05-18T05:21:37.168Z,45600.00
2023-05-18T05:22:37.181Z,48768.00
2023-05-18T05:23:37.191Z,45536.00
2023-05-18T05:24:37.160Z,41408.00
2023-05-18T05:25:37.128Z,41152.00
2023-05-18T05:26:37.125Z,45248.00
2023-05-18T05:27:37.094Z,50464.00
2023-05-18T05:28:37.085Z,52512.00
2023-05-18T05:29:37.109Z,51488.00
2023-05-18T05:30:37.093Z,53632.00
2023-05-18T05:31:38.149Z,53632.00
2023-05-18T05:32:37.195Z,53760.00
2023-05-18T05:33:37.056Z,55360.00
2023-05-18T05:34:37.055Z,58592.00
2023-05-18T05:35:37.419Z,60096.00
2023-05-18T05:36:37.010Z,62944.00
2023-05-18T05:37:37.000Z,64000.00
2023-05-18T05:38:36.985Z,70688.00
2023-05-18T05:39:36.974Z,74592.00
2023-05-18T05:40:36.979Z,74560.00
2023-05-18T05:41:36.961Z,76032.00
2023-05-18T05:42:36.949Z,73568.00
2023-05-18T05:43:36.934Z,77408.00
2023-05-18T05:44:36.922Z,71584.00
2023-05-18T05:45:36.952Z,75136.00
2023-05-18T05:46:36.978Z,71520.00
2023-05-18T05:47:36.912Z,71200.00
2023-05-18T05:48:36.883Z,65376.00
2023-05-18T05:49:36.868Z,65984.00
2023-05-18T05:50:37.077Z,67520.00
2023-05-18T05:51:36.882Z,73344.00
2023-05-18T05:52:36.864Z,74880.00
2023-05-18T05:53:36.828Z,76352.00
2023-05-18T05:54:36.828Z,74496.00
2023-05-18T05:55:36.804Z,79360.00
2023-05-18T05:56:36.799Z,81088.00
2023-05-18T05:57:36.806Z,80832.00
2023-05-18T05:58:36.772Z,80736.00
2023-05-18T05:59:37.784Z,82368.00
2023-05-18T06:00:36.829Z,82944.00
2023-05-18T06:01:36.786Z,82240.00
2023-05-18T06:02:36.903Z,82208.00
2023-05-18T06:03:36.785Z,81536.00
2023-05-18T06:04:36.837Z,81664.00
2023-05-18T06:05:36.714Z,82304.00
2023-05-18T06:06:36.725Z,82400.00
2023-05-18T06:07:36.699Z,82144.00
2023-05-18T06:08:36.697Z,80576.00
2023-05-18T06:09:36.681Z,80544.00
2023-05-18T06:10:36.700Z,80192.00
2023-05-18T06:11:36.682Z,80736.00
2023-05-18T06:12:36.692Z,81024.00
2023-05-18T06:13:36.642Z,80864.00
2023-05-18T06:14:36.677Z,80640.00
2023-05-18T06:15:36.609Z,80800.00
2023-05-18T06:16:37.671Z,80160.00
2023-05-18T06:17:36.618Z,80992.00
2023-05-18T06:18:36.737Z,81376.00
2023-05-18T06:19:36.586Z,82528.00
2023-05-18T06:20:36.580Z,82496.00
2023-05-18T06:21:36.561Z,80800.00
2023-05-18T06:22:36.591Z,81376.00
2023-05-18T06:23:36.866Z,81472.00
2023-05-18T06:24:36.532Z,78560.00
2023-05-18T06:25:36.536Z,78176.00
2023-05-18T06:26:36.502Z,76512.00
2023-05-18T06:27:36.507Z,75808.00
2023-05-18T06:28:36.502Z,71872.00
2023-05-18T06:29:36.493Z,75232.00
2023-05-18T06:30:36.463Z,75360.00
2023-05-18T06:31:36.538Z,76736.00
2023-05-18T06:32:36.468Z,77376.00
2023-05-18T06:33:36.526Z,73248.00
2023-05-18T06:34:36.432Z,75168.00
2023-05-18T06:35:36.420Z,81728.00
2023-05-18T06:36:36.432Z,81888.00
2023-05-18T06:37:36.400Z,79808.00
2023-05-18T06:38:36.392Z,79776.00
2023-05-18T06:39:36.433Z,77248.00
2023-05-18T06:40:36.375Z,77152.00
2023-05-18T06:41:36.391Z,80928.00
2023-05-18T06:42:36.392Z,81280.00
2023-05-18T06:43:36.353Z,81376.00
2023-05-18T06:44:36.358Z,79616.00
2023-05-18T06:45:37.499Z,79008.00
2023-05-18T06:46:37.418Z,80128.00
2023-05-18T06:47:36.309Z,80448.00
2023-05-18T06:48:36.306Z,81760.00
2023-05-18T06:49:36.312Z,82016.00
2023-05-18T06:50:36.359Z,81184.00
2023-05-18T06:51:36.268Z,81088.00
2023-05-18T06:52:36.268Z,81824.00
2023-05-18T06:53:36.267Z,81600.00
2023-05-18T06:54:36.254Z,81376.00
2023-05-18T06:55:36.233Z,82816.00
2023-05-18T06:56:36.226Z,82336.00
2023-05-18T06:57:36.252Z,81632.00
2023-05-18T06:58:36.207Z,80416.00
2023-05-18T06:59:36.190Z,77664.00
2023-05-18T07:00:36.203Z,72736.00
2023-05-18T07:01:36.203Z,74560.00
2023-05-18T07:02:36.195Z,76480.00
2023-05-18T07:03:36.220Z,72320.00
2023-05-18T07:04:36.155Z,70496.00
2023-05-18T07:05:38.601Z,71424.00
2023-05-18T07:06:37.133Z,70368.00
2023-05-18T07:07:36.144Z,70752.00
2023-05-18T07:08:36.120Z,71648.00
2023-05-18T07:09:36.116Z,74432.00
2023-05-18T07:10:36.093Z,75776.00
2023-05-18T07:11:36.091Z,73120.00
2023-05-18T07:12:36.058Z,73248.00
2023-05-18T07:13:36.048Z,69664.00
2023-05-18T07:14:36.069Z,71200.00
2023-05-18T07:15:36.059Z,73920.00
2023-05-18T07:16:36.049Z,75712.00
2023-05-18T07:17:36.050Z,77760.00
2023-05-18T07:18:36.057Z,78528.00
2023-05-18T07:19:36.038Z,78272.00
2023-05-18T07:20:35.993Z,78272.00
2023-05-18T07:21:35.971Z,76864.00
2023-05-18T07:22:35.965Z,76224.00
2023-05-18T07:23:35.967Z,77440.00
2023-05-18T07:24:35.975Z,78048.00
2023-05-18T07:25:35.930Z,77664.00
2023-05-18T07:26:35.937Z,77792.00
2023-05-18T07:27:35.908Z,77024.00
2023-05-18T07:28:35.907Z,75104.00
2023-05-18T07:29:35.936Z,73184.00
2023-05-18T07:30:35.903Z,72384.00
2023-05-18T07:31:35.880Z,74144.00
2023-05-18T07:32:35.900Z,75648.00
2023-05-18T07:33:35.860Z,75936.00
2023-05-18T07:34:35.895Z,75072.00
2023-05-18T07:35:35.853Z,74656.00
2023-05-18T07:36:35.873Z,73664.00
2023-05-18T07:37:35.824Z,71232.00
2023-05-18T07:38:35.821Z,70848.00
2023-05-18T07:39:35.810Z,70976.00
2023-05-18T07:40:35.839Z,70208.00
2023-05-18T07:41:35.808Z,70912.00
2023-05-18T07:42:35.768Z,71648.00
2023-05-18T07:43:35.758Z,71552.00
2023-05-18T07:44:35.809Z,73312.00
2023-05-18T07:45:35.749Z,74592.00
2023-05-18T07:46:35.767Z,74368.00
2023-05-18T07:47:35.759Z,74624.00
2023-05-18T07:48:35.736Z,73440.00
2023-05-18T07:49:35.719Z,72032.00
2023-05-18T07:50:35.737Z,71616.00
2023-05-18T07:51:35.695Z,72512.00
2023-05-18T07:52:35.681Z,70240.00
2023-05-18T07:53:35.760Z,67552.00
2023-05-18T07:54:35.761Z,64736.00
2023-05-18T07:55:35.650Z,63456.00
2023-05-18T07:56:35.663Z,64416.00
2023-05-18T07:57:35.635Z,66272.00
2023-05-18T07:58:35.724Z,64256.00
2023-05-18T07:59:35.615Z,64000.00
2023-05-18T08:00:35.600Z,59104.00
2023-05-18T08:01:35.647Z,57024.00
2023-05-18T08:02:35.660Z,56832.00
2023-05-18T08:03:35.659Z,53152.00
2023-05-18T08:04:35.578Z,54240.00
2023-05-18T08:05:35.556Z,50528.00
2023-05-18T08:06:35.553Z,52832.00
2023-05-18T08:07:35.548Z,52608.00
2023-05-18T08:08:35.541Z,52256.00
2023-05-18T08:09:35.522Z,49472.00
2023-05-18T08:10:35.527Z,52000.00
2023-05-18T08:11:35.497Z,53632.00
2023-05-18T08:12:35.490Z,55072.00
2023-05-18T08:13:35.565Z,52000.00
2023-05-18T08:14:35.481Z,49664.00
2023-05-18T08:15:35.581Z,52480.00
2023-05-18T08:16:35.440Z,52192.00
2023-05-18T08:17:35.496Z,53152.00
2023-05-18T08:18:35.458Z,54112.00
2023-05-18T08:19:35.422Z,54464.00
2023-05-18T08:20:35.470Z,52512.00
2023-05-18T08:21:35.404Z,49568.00
2023-05-18T08:22:35.395Z,49312.00
2023-05-18T08:23:35.381Z,48320.00
2023-05-18T08:24:35.381Z,46048.00
2023-05-18T08:25:35.358Z,45120.00
2023-05-18T08:26:35.394Z,44192.00
2023-05-18T08:27:35.338Z,40448.00
2023-05-18T08:28:35.368Z,37120.00
2023-05-18T08:29:35.338Z,38752.00
2023-05-18T08:30:35.356Z,38048.00
2023-05-18T08:31:35.344Z,36672.00
2023-05-18T08:32:35.324Z,36480.00
2023-05-18T08:33:35.293Z,36224.00
2023-05-18T08:34:35.267Z,34496.00
2023-05-18T08:35:35.249Z,31360.00
2023-05-18T08:36:35.267Z,27680.00
2023-05-18T08:37:35.255Z,26784.00
2023-05-18T08:38:35.257Z,26624.00
2023-05-18T08:39:35.231Z,26176.00
2023-05-18T08:40:35.217Z,26048.00
2023-05-18T08:41:35.204Z,26304.00
2023-05-18T08:42:48.632Z,26112.00
2023-05-18T08:43:37.216Z,26464.00
2023-05-18T08:44:35.167Z,27040.00
2023-05-18T08:45:35.195Z,27616.00
2023-05-18T08:46:35.155Z,28032.00
2023-05-18T08:47:35.189Z,28992.00
2023-05-18T08:48:35.208Z,32192.00
2023-05-18T08:49:35.133Z,34944.00
2023-05-18T08:50:35.152Z,35008.00
2023-05-18T08:51:35.095Z,33088.00
2023-05-18T08:52:35.085Z,32608.00
2023-05-18T08:53:35.087Z,32800.00
2023-05-18T08:54:35.074Z,31200.00
2023-05-18T08:55:35.054Z,29440.00
2023-05-18T08:56:36.116Z,29184.00
2023-05-18T08:57:35.036Z,29376.00
2023-05-18T08:58:35.050Z,29120.00
2023-05-18T08:59:35.043Z,28576.00
2023-05-18T09:00:35.345Z,27392.00
2023-05-18T09:01:35.082Z,26592.00
2023-05-18T09:02:35.050Z,27616.00
2023-05-18T09:03:34.996Z,27808.00
2023-05-18T09:04:35.029Z,26688.00
2023-05-18T09:05:35.278Z,26176.00
2023-05-18T09:06:34.999Z,25664.00
2023-05-18T09:07:34.960Z,25632.00
2023-05-18T09:08:34.931Z,25696.00
2023-05-18T09:09:34.931Z,25920.00
2023-05-18T09:10:34.917Z,25728.00
2023-05-18T09:11:34.899Z,25728.00
2023-05-18T09:12:34.900Z,25536.00
2023-05-18T09:13:34.892Z,24992.00
2023-05-18T09:14:34.880Z,24960.00
2023-05-18T09:15:34.848Z,24640.00
2023-05-18T09:16:34.984Z,24736.00
2023-05-18T09:17:34.879Z,25024.00
2023-05-18T09:18:34.860Z,24896.00
2023-05-18T09:19:34.841Z,25056.00
2023-05-18T09:20:34.845Z,24864.00
2023-05-18T09:21:34.806Z,24672.00
2023-05-18T09:22:34.803Z,24064.00
2023-05-18T09:23:34.802Z,22944.00
2023-05-18T09:24:34.805Z,23552.00
2023-05-18T09:25:34.774Z,24160.00
2023-05-18T09:26:34.744Z,24352.00
2023-05-18T09:27:34.739Z,24160.00
2023-05-18T09:28:34.755Z,24640.00
2023-05-18T09:29:34.728Z,25120.00
2023-05-18T09:30:34.784Z,25184.00
2023-05-18T09:31:34.754Z,25504.00
2023-05-18T09:32:34.758Z,18496.00
2023-05-18T09:33:34.746Z,27200.00
2023-05-18T09:34:34.681Z,27872.00
2023-05-18T09:35:34.953Z,27680.00
2023-05-18T09:36:34.713Z,28192.00
2023-05-18T09:37:34.642Z,28320.00
2023-05-18T09:38:34.642Z,30592.00
2023-05-18T09:39:34.627Z,32256.00
2023-05-18T09:40:34.672Z,31520.00
2023-05-18T09:41:34.598Z,28544.00
2023-05-18T09:42:34.609Z,26336.00
2023-05-18T09:43:34.600Z,24672.00
2023-05-18T09:44:34.587Z,23008.00
2023-05-18T09:45:34.597Z,22624.00
2023-05-18T09:46:34.608Z,17600.00
2023-05-18T09:47:34.587Z,17536.00
2023-05-18T09:48:34.542Z,22080.00
2023-05-18T09:49:34.550Z,21952.00
2023-05-18T09:50:34.526Z,22272.00
2023-05-18T09:51:34.521Z,22624.00
2023-05-18T09:52:34.512Z,22112.00
2023-05-18T09:53:34.508Z,21824.00
2023-05-18T09:54:34.513Z,20416.00
2023-05-18T09:55:34.501Z,17920.00
2023-05-18T09:56:34.469Z,19520.00
2023-05-18T09:57:34.469Z,19616.00
2023-05-18T09:58:34.482Z,16704.00
2023-05-18T09:59:34.444Z,18720.00
2023-05-18T10:00:34.513Z,16736.00
2023-05-18T10:01:34.469Z,16832.00
2023-05-18T10:02:34.483Z,16448.00
2023-05-18T10:03:34.452Z,16480.00
2023-05-18T10:04:34.421Z,16672.00
2023-05-18T10:05:36.123Z,16960.00
2023-05-18T10:06:35.403Z,16640.00
2023-05-18T10:07:34.411Z,18464.00
2023-05-18T10:08:34.376Z,16480.00
2023-05-18T10:09:34.339Z,15884.00
2023-05-18T10:10:34.370Z,15976.00
2023-05-18T10:11:34.412Z,18048.00
2023-05-18T10:12:34.329Z,18176.00
2023-05-18T10:13:34.336Z,17376.00
2023-05-18T10:14:34.300Z,19040.00
2023-05-18T10:15:34.308Z,20288.00
2023-05-18T10:16:34.334Z,20160.00
2023-05-18T10:17:34.416Z,17888.00
2023-05-18T10:18:34.279Z,18368.00
2023-05-18T10:19:34.263Z,20480.00
2023-05-18T10:20:34.277Z,19840.00
2023-05-18T10:21:34.248Z,16992.00
2023-05-18T10:22:34.243Z,16896.00
2023-05-18T10:23:34.345Z,18208.00
2023-05-18T10:24:34.234Z,17184.00
2023-05-18T10:25:34.215Z,17600.00
2023-05-18T10:26:34.209Z,19680.00
2023-05-18T10:27:34.179Z,19264.00
2023-05-18T10:28:35.213Z,18592.00
2023-05-18T10:29:34.206Z,18688.00
2023-05-18T10:30:34.285Z,19040.00
2023-05-18T10:31:34.265Z,19168.00
2023-05-18T10:32:34.149Z,18848.00
2023-05-18T10:33:34.236Z,17664.00
2023-05-18T10:34:34.103Z,18976.00
2023-05-18T10:35:34.146Z,19136.00
2023-05-18T10:36:34.096Z,17152.00
2023-05-18T10:37:34.067Z,18592.00
2023-05-18T10:38:34.080Z,17792.00
2023-05-18T10:39:34.070Z,19296.00
2023-05-18T10:40:34.109Z,19072.00
2023-05-18T10:41:34.042Z,18336.00
2023-05-18T10:42:34.053Z,17632.00
2023-05-18T10:43:34.024Z,19584.00
2023-05-18T10:44:34.020Z,19296.00
2023-05-18T10:45:34.014Z,19232.00
2023-05-18T10:46:34.229Z,19264.00
2023-05-18T10:47:34.220Z,19232.00
2023-05-18T10:48:33.993Z,19808.00
2023-05-18T10:49:33.975Z,19904.00
2023-05-18T10:51:05.864Z,19872.00
2023-05-18T10:51:34.602Z,19104.00
2023-05-18T10:52:33.983Z,18880.00
2023-05-18T10:53:33.931Z,18656.00
2023-05-18T10:54:33.914Z,18112.00
2023-05-18T10:55:33.925Z,20224.00
2023-05-18T10:56:33.905Z,20480.00
2023-05-18T10:57:33.917Z,19616.00
2023-05-18T10:58:33.869Z,18272.00
2023-05-18T10:59:33.873Z,19776.00
2023-05-18T11:00:33.899Z,20032.00
2023-05-18T11:01:33.908Z,18688.00
2023-05-18T11:02:33.842Z,19744.00
2023-05-18T11:03:33.856Z,19488.00
2023-05-18T11:04:33.875Z,17728.00
2023-05-18T11:05:33.805Z,19072.00
2023-05-18T11:06:33.779Z,18208.00
2023-05-18T11:07:33.800Z,18688.00
2023-05-18T11:08:33.787Z,18464.00
2023-05-18T11:09:33.782Z,18560.00
2023-05-18T11:10:33.747Z,18368.00
2023-05-18T11:11:33.753Z,18144.00
2023-05-18T11:12:33.750Z,17536.00
2023-05-18T11:13:33.733Z,18080.00
2023-05-18T11:14:33.765Z,18272.00
2023-05-18T11:15:33.712Z,18016.00
2023-05-18T11:16:33.757Z,18528.00
2023-05-18T11:17:33.737Z,18368.00
2023-05-18T11:18:33.714Z,18464.00
2023-05-18T11:19:33.653Z,18784.00
2023-05-18T11:20:33.669Z,18880.00
2023-05-18T11:21:33.636Z,18848.00
2023-05-18T11:22:33.643Z,18112.00
2023-05-18T11:23:33.626Z,18304.00
2023-05-18T11:24:33.625Z,19072.00
2023-05-18T11:25:33.627Z,19040.00
2023-05-18T11:26:33.607Z,19200.00
2023-05-18T11:27:33.657Z,19200.00
2023-05-18T11:28:33.577Z,19232.00
2023-05-18T11:29:33.603Z,19168.00
2023-05-18T11:30:33.804Z,19232.00
2023-05-18T11:31:33.580Z,19296.00
2023-05-18T11:32:33.668Z,19328.00
2023-05-18T11:33:33.589Z,19104.00
2023-05-18T11:34:33.526Z,19616.00
2023-05-18T11:35:33.498Z,18816.00
2023-05-18T11:36:33.489Z,17568.00
2023-05-18T11:37:33.510Z,17568.00
2023-05-18T11:38:33.475Z,18464.00
2023-05-18T11:39:34.764Z,18720.00
2023-05-18T11:40:33.493Z,18304.00
2023-05-18T11:41:33.449Z,18048.00
2023-05-18T11:42:33.497Z,17536.00
2023-05-18T11:43:33.426Z,17344.00
2023-05-18T11:44:34.426Z,16480.00
2023-05-18T11:45:33.426Z,16512.00
2023-05-18T11:46:33.427Z,16512.00
2023-05-18T11:47:33.450Z,16256.00
2023-05-18T11:48:33.514Z,16640.00
2023-05-18T11:49:33.358Z,16832.00
2023-05-18T11:50:33.605Z,16640.00
2023-05-18T11:51:33.366Z,16928.00
2023-05-18T11:52:33.339Z,17152.00
2023-05-18T11:53:33.333Z,17120.00
2023-05-18T11:54:33.339Z,17152.00
2023-05-18T11:55:33.313Z,16960.00
2023-05-18T11:56:33.317Z,16960.00
2023-05-18T11:57:33.367Z,16928.00
2023-05-18T11:58:33.277Z,17056.00
2023-05-18T11:59:33.263Z,16896.00
2023-05-18T12:00:33.375Z,16608.00
2023-05-18T12:01:33.247Z,16576.00
2023-05-18T12:02:33.339Z,16576.00
2023-05-18T12:03:33.315Z,16576.00
2023-05-18T12:04:33.245Z,16576.00
2023-05-18T12:05:33.245Z,16640.00
2023-05-18T12:06:33.203Z,16864.00
2023-05-18T12:07:33.276Z,16736.00
2023-05-18T12:08:33.184Z,16480.00
2023-05-18T12:09:33.174Z,16288.00